YXGE weather

Glen Innes - Rugby Park Heliport
Glen Innes, New South Wales, Australia

Public forecast

Using degrees Celsius for public forecast. Weather courtesy of forecast.io.

Closest aviation weather report (METAR) to Glen Innes - Rugby Park Heliport

Closest report is Grafton Airport, 67.5 nm (124.9 km) E. Retrieved 2019/10/20 22:00 UTC (49 minutes ago):

YGFN 202200Z AUTO 20006KT 9999 // SCT059 20/11 Q1026

Closest aviation forecast (TAF) to Glen Innes - Rugby Park Heliport

Closest forecast is Tamworth Airport, 93.4 nm (173.0 km) SSW. Retrieved 2019/10/20 18:36 UTC (4 hours ago):

TAF TAF YSTW 201646Z 2018/2112 15010KT CAVOK FM210200 18008KT CAVOK FM210900 12010KT CAVOK